sensor_id;sensor_type;location;lat;lon;timestamp;temperature;humidity
54485;DHT22;45006;56.958;24.166;2023-10-13T00:00:42;20.80;84.40
54485;DHT22;45006;56.958;24.166;2023-10-13T00:03:09;20.80;84.40
54485;DHT22;45006;56.958;24.166;2023-10-13T00:05:43;20.80;84.50
54485;DHT22;45006;56.958;24.166;2023-10-13T00:08:12;20.80;84.20
54485;DHT22;45006;56.958;24.166;2023-10-13T00:10:41;20.90;84.50
54485;DHT22;45006;56.958;24.166;2023-10-13T00:13:09;20.80;84.60
54485;DHT22;45006;56.958;24.166;2023-10-13T00:15:43;20.80;84.40
54485;DHT22;45006;56.958;24.166;2023-10-13T00:20:54;20.80;84.50
54485;DHT22;45006;56.958;24.166;2023-10-13T00:23:23;20.90;84.80
54485;DHT22;45006;56.958;24.166;2023-10-13T00:25:54;20.80;84.60
54485;DHT22;45006;56.958;24.166;2023-10-13T00:28:25;20.80;85.00
54485;DHT22;45006;56.958;24.166;2023-10-13T00:30:54;20.80;85.00
54485;DHT22;45006;56.958;24.166;2023-10-13T00:33:41;20.80;85.00
54485;DHT22;45006;56.958;24.166;2023-10-13T00:36:09;20.80;85.30
54485;DHT22;45006;56.958;24.166;2023-10-13T00:38:44;20.80;85.40
54485;DHT22;45006;56.958;24.166;2023-10-13T00:41:15;20.80;85.40
54485;DHT22;45006;56.958;24.166;2023-10-13T00:44:00;20.80;85.80
54485;DHT22;45006;56.958;24.166;2023-10-13T00:46:38;20.80;86.90
54485;DHT22;45006;56.958;24.166;2023-10-13T00:49:06;20.90;86.40
54485;DHT22;45006;56.958;24.166;2023-10-13T00:51:35;20.80;86.70
54485;DHT22;45006;56.958;24.166;2023-10-13T00:54:04;20.80;86.90
54485;DHT22;45006;56.958;24.166;2023-10-13T00:56:39;20.80;86.90
54485;DHT22;45006;56.958;24.166;2023-10-13T00:59:19;20.80;87.10
54485;DHT22;45006;56.958;24.166;2023-10-13T01:01:52;20.90;87.20
54485;DHT22;45006;56.958;24.166;2023-10-13T01:04:23;20.90;87.20
54485;DHT22;45006;56.958;24.166;2023-10-13T01:06:54;20.80;87.30
54485;DHT22;45006;56.958;24.166;2023-10-13T01:09:21;20.80;87.50
54485;DHT22;45006;56.958;24.166;2023-10-13T01:11:52;20.80;87.60
54485;DHT22;45006;56.958;24.166;2023-10-13T01:14:21;20.80;87.70
54485;DHT22;45006;56.958;24.166;2023-10-13T01:16:50;20.80;87.60
54485;DHT22;45006;56.958;24.166;2023-10-13T01:19:23;20.80;87.90
54485;DHT22;45006;56.958;24.166;2023-10-13T01:21:55;20.80;88.50
54485;DHT22;45006;56.958;24.166;2023-10-13T01:24:30;20.80;88.90
54485;DHT22;45006;56.958;24.166;2023-10-13T01:27:05;20.80;87.70
54485;DHT22;45006;56.958;24.166;2023-10-13T01:29:49;20.80;87.90
54485;DHT22;45006;56.958;24.166;2023-10-13T01:32:20;20.80;88.00
54485;DHT22;45006;56.958;24.166;2023-10-13T01:34:47;20.80;88.00
54485;DHT22;45006;56.958;24.166;2023-10-13T01:37:16;20.80;88.00
54485;DHT22;45006;56.958;24.166;2023-10-13T01:39:46;20.80;88.20
54485;DHT22;45006;56.958;24.166;2023-10-13T01:42:16;20.80;87.70
54485;DHT22;45006;56.958;24.166;2023-10-13T01:44:51;20.70;87.90
54485;DHT22;45006;56.958;24.166;2023-10-13T01:47:18;20.80;88.00
54485;DHT22;45006;56.958;24.166;2023-10-13T01:49:46;20.80;88.00
54485;DHT22;45006;56.958;24.166;2023-10-13T01:52:22;20.80;88.00
54485;DHT22;45006;56.958;24.166;2023-10-13T01:54:51;20.80;87.90
54485;DHT22;45006;56.958;24.166;2023-10-13T01:57:19;20.80;87.80
54485;DHT22;45006;56.958;24.166;2023-10-13T01:59:47;20.80;87.90
54485;DHT22;45006;56.958;24.166;2023-10-13T02:02:16;20.80;87.80
54485;DHT22;45006;56.958;24.166;2023-10-13T02:04:56;20.80;87.80
54485;DHT22;45006;56.958;24.166;2023-10-13T02:07:28;20.70;87.80
54485;DHT22;45006;56.958;24.166;2023-10-13T02:10:01;20.80;88.00
54485;DHT22;45006;56.958;24.166;2023-10-13T02:12:32;20.80;87.80
54485;DHT22;45006;56.958;24.166;2023-10-13T02:15:12;20.80;87.90
54485;DHT22;45006;56.958;24.166;2023-10-13T02:17:47;20.70;87.80
54485;DHT22;45006;56.958;24.166;2023-10-13T02:20:19;20.80;87.80
54485;DHT22;45006;56.958;24.166;2023-10-13T02:22:49;20.70;87.70
54485;DHT22;45006;56.958;24.166;2023-10-13T02:25:18;20.70;87.60
54485;DHT22;45006;56.958;24.166;2023-10-13T02:28:03;20.70;87.50
54485;DHT22;45006;56.958;24.166;2023-10-13T02:30:42;20.70;87.60
54485;DHT22;45006;56.958;24.166;2023-10-13T02:33:16;20.70;87.30
54485;DHT22;45006;56.958;24.166;2023-10-13T02:36:01;20.70;87.50
54485;DHT22;45006;56.958;24.166;2023-10-13T02:38:32;20.70;87.30
54485;DHT22;45006;56.958;24.166;2023-10-13T02:41:15;20.70;87.40
54485;DHT22;45006;56.958;24.166;2023-10-13T02:43:56;20.70;87.50
54485;DHT22;45006;56.958;24.166;2023-10-13T02:46:24;20.70;87.50
54485;DHT22;45006;56.958;24.166;2023-10-13T02:49:02;20.70;87.60
54485;DHT22;45006;56.958;24.166;2023-10-13T02:51:37;20.70;87.50
54485;DHT22;45006;56.958;24.166;2023-10-13T02:54:04;20.70;87.70
54485;DHT22;45006;56.958;24.166;2023-10-13T02:56:38;20.70;87.60
54485;DHT22;45006;56.958;24.166;2023-10-13T02:59:25;20.70;87.80
54485;DHT22;45006;56.958;24.166;2023-10-13T03:02:07;20.70;87.80
54485;DHT22;45006;56.958;24.166;2023-10-13T03:04:57;20.70;87.80
54485;DHT22;45006;56.958;24.166;2023-10-13T03:07:27;20.70;87.80
54485;DHT22;45006;56.958;24.166;2023-10-13T03:09:58;20.70;88.30
54485;DHT22;45006;56.958;24.166;2023-10-13T03:12:27;20.60;87.60
54485;DHT22;45006;56.958;24.166;2023-10-13T03:15:01;20.60;87.50
54485;DHT22;45006;56.958;24.166;2023-10-13T03:17:44;20.60;87.50
54485;DHT22;45006;56.958;24.166;2023-10-13T03:20:15;20.60;87.80
54485;DHT22;45006;56.958;24.166;2023-10-13T03:22:43;20.60;87.60
54485;DHT22;45006;56.958;24.166;2023-10-13T03:25:14;20.70;87.60
54485;DHT22;45006;56.958;24.166;2023-10-13T03:27:51;20.70;87.60
54485;DHT22;45006;56.958;24.166;2023-10-13T03:30:18;20.70;88.00
54485;DHT22;45006;56.958;24.166;2023-10-13T03:32:48;20.70;87.40
54485;DHT22;45006;56.958;24.166;2023-10-13T03:35:20;20.70;87.50
54485;DHT22;45006;56.958;24.166;2023-10-13T03:37:52;20.70;87.30
54485;DHT22;45006;56.958;24.166;2023-10-13T03:40:19;20.70;87.60
54485;DHT22;45006;56.958;24.166;2023-10-13T03:42:55;20.70;87.70
54485;DHT22;45006;56.958;24.166;2023-10-13T03:45:26;20.70;87.70
54485;DHT22;45006;56.958;24.166;2023-10-13T03:47:53;20.60;87.60
54485;DHT22;45006;56.958;24.166;2023-10-13T03:50:20;20.60;87.50
54485;DHT22;45006;56.958;24.166;2023-10-13T03:52:58;20.60;87.50
54485;DHT22;45006;56.958;24.166;2023-10-13T03:55:27;20.70;87.60
54485;DHT22;45006;56.958;24.166;2023-10-13T03:57:55;20.70;87.60
54485;DHT22;45006;56.958;24.166;2023-10-13T04:00:26;20.60;87.40
54485;DHT22;45006;56.958;24.166;2023-10-13T04:02:58;20.70;87.20
54485;DHT22;45006;56.958;24.166;2023-10-13T04:05:36;20.60;87.30
54485;DHT22;45006;56.958;24.166;2023-10-13T04:08:12;20.60;87.20
54485;DHT22;45006;56.958;24.166;2023-10-13T04:10:55;20.70;87.30
54485;DHT22;45006;56.958;24.166;2023-10-13T04:13:23;20.60;88.00
54485;DHT22;45006;56.958;24.166;2023-10-13T04:16:09;20.70;87.30
54485;DHT22;45006;56.958;24.166;2023-10-13T04:19:02;20.60;87.20
54485;DHT22;45006;56.958;24.166;2023-10-13T04:21:30;20.60;87.30
54485;DHT22;45006;56.958;24.166;2023-10-13T04:24:06;20.70;87.30
54485;DHT22;45006;56.958;24.166;2023-10-13T04:26:47;20.70;87.50
54485;DHT22;45006;56.958;24.166;2023-10-13T04:29:33;20.70;87.40
54485;DHT22;45006;56.958;24.166;2023-10-13T04:32:23;20.60;87.60
54485;DHT22;45006;56.958;24.166;2023-10-13T04:35:00;20.70;87.60
54485;DHT22;45006;56.958;24.166;2023-10-13T04:37:40;20.60;87.70
54485;DHT22;45006;56.958;24.166;2023-10-13T04:40:18;20.60;87.70
54485;DHT22;45006;56.958;24.166;2023-10-13T04:42:47;20.60;87.50
54485;DHT22;45006;56.958;24.166;2023-10-13T04:45:20;20.60;87.60
54485;DHT22;45006;56.958;24.166;2023-10-13T04:48:10;20.60;87.70
54485;DHT22;45006;56.958;24.166;2023-10-13T04:51:00;20.60;87.60
54485;DHT22;45006;56.958;24.166;2023-10-13T04:53:47;20.60;87.70
54485;DHT22;45006;56.958;24.166;2023-10-13T04:56:32;20.60;87.90
54485;DHT22;45006;56.958;24.166;2023-10-13T04:59:08;20.50;87.80
54485;DHT22;45006;56.958;24.166;2023-10-13T05:01:45;20.60;87.70
54485;DHT22;45006;56.958;24.166;2023-10-13T05:04:24;20.50;87.90
54485;DHT22;45006;56.958;24.166;2023-10-13T05:07:05;20.60;87.90
54485;DHT22;45006;56.958;24.166;2023-10-13T05:09:51;20.50;88.10
54485;DHT22;45006;56.958;24.166;2023-10-13T05:12:37;20.50;88.00
54485;DHT22;45006;56.958;24.166;2023-10-13T05:15:23;20.50;87.90
54485;DHT22;45006;56.958;24.166;2023-10-13T05:18:09;20.50;88.10
54485;DHT22;45006;56.958;24.166;2023-10-13T05:20:55;20.50;88.20
54485;DHT22;45006;56.958;24.166;2023-10-13T05:23:41;20.50;88.20
54485;DHT22;45006;56.958;24.166;2023-10-13T05:26:27;20.50;88.40
54485;DHT22;45006;56.958;24.166;2023-10-13T05:29:13;20.60;88.70
54485;DHT22;45006;56.958;24.166;2023-10-13T05:31:59;20.60;88.60
54485;DHT22;45006;56.958;24.166;2023-10-13T05:34:45;20.60;88.40
54485;DHT22;45006;56.958;24.166;2023-10-13T05:37:30;20.60;88.00
54485;DHT22;45006;56.958;24.166;2023-10-13T05:40:16;20.50;88.00
54485;DHT22;45006;56.958;24.166;2023-10-13T05:43:02;20.50;87.80
54485;DHT22;45006;56.958;24.166;2023-10-13T05:45:47;20.60;87.70
54485;DHT22;45006;56.958;24.166;2023-10-13T05:48:41;20.60;87.70
54485;DHT22;45006;56.958;24.166;2023-10-13T05:51:29;20.50;87.40
54485;DHT22;45006;56.958;24.166;2023-10-13T05:54:03;20.50;87.40
54485;DHT22;45006;56.958;24.166;2023-10-13T05:56:48;20.50;87.40
54485;DHT22;45006;56.958;24.166;2023-10-13T05:59:36;20.50;87.30
54485;DHT22;45006;56.958;24.166;2023-10-13T06:02:23;20.50;87.30
54485;DHT22;45006;56.958;24.166;2023-10-13T06:05:10;20.50;87.30
54485;DHT22;45006;56.958;24.166;2023-10-13T06:07:56;20.50;87.30
54485;DHT22;45006;56.958;24.166;2023-10-13T06:10:43;20.50;87.30
54485;DHT22;45006;56.958;24.166;2023-10-13T06:13:28;20.50;87.30
54485;DHT22;45006;56.958;24.166;2023-10-13T06:16:16;20.50;87.20
54485;DHT22;45006;56.958;24.166;2023-10-13T06:19:02;20.50;87.10
54485;DHT22;45006;56.958;24.166;2023-10-13T06:21:48;20.50;86.80
54485;DHT22;45006;56.958;24.166;2023-10-13T06:24:33;20.60;86.50
54485;DHT22;45006;56.958;24.166;2023-10-13T06:27:19;20.60;86.40
54485;DHT22;45006;56.958;24.166;2023-10-13T06:30:04;20.50;86.30
54485;DHT22;45006;56.958;24.166;2023-10-13T06:32:32;20.60;86.30
54485;DHT22;45006;56.958;24.166;2023-10-13T06:35:00;20.60;86.30
54485;DHT22;45006;56.958;24.166;2023-10-13T06:37:46;20.60;86.00
54485;DHT22;45006;56.958;24.166;2023-10-13T06:40:13;20.60;85.90
54485;DHT22;45006;56.958;24.166;2023-10-13T06:42:53;20.60;85.70
54485;DHT22;45006;56.958;24.166;2023-10-13T06:45:22;20.60;85.60
54485;DHT22;45006;56.958;24.166;2023-10-13T06:47:50;20.60;85.50
54485;DHT22;45006;56.958;24.166;2023-10-13T06:50:22;20.60;85.50
54485;DHT22;45006;56.958;24.166;2023-10-13T06:52:57;20.60;85.30
54485;DHT22;45006;56.958;24.166;2023-10-13T06:55:29;20.70;85.30
54485;DHT22;45006;56.958;24.166;2023-10-13T06:58:02;20.70;85.30
54485;DHT22;45006;56.958;24.166;2023-10-13T07:00:29;20.60;85.20
54485;DHT22;45006;56.958;24.166;2023-10-13T07:03:01;20.60;85.20
54485;DHT22;45006;56.958;24.166;2023-10-13T07:05:39;20.60;85.20
54485;DHT22;45006;56.958;24.166;2023-10-13T07:08:09;20.60;85.10
54485;DHT22;45006;56.958;24.166;2023-10-13T07:10:36;20.60;85.00
54485;DHT22;45006;56.958;24.166;2023-10-13T07:13:15;20.60;85.10
54485;DHT22;45006;56.958;24.166;2023-10-13T07:15:44;20.60;85.00
54485;DHT22;45006;56.958;24.166;2023-10-13T07:18:15;20.60;85.00
54485;DHT22;45006;56.958;24.166;2023-10-13T07:20:50;20.60;84.90
54485;DHT22;45006;56.958;24.166;2023-10-13T07:23:17;20.60;84.90
54485;DHT22;45006;56.958;24.166;2023-10-13T07:25:55;20.60;84.80
54485;DHT22;45006;56.958;24.166;2023-10-13T07:28:30;20.60;84.90
54485;DHT22;45006;56.958;24.166;2023-10-13T07:30:58;20.60;85.00
54485;DHT22;45006;56.958;24.166;2023-10-13T07:33:31;20.60;85.10
54485;DHT22;45006;56.958;24.166;2023-10-13T07:36:00;20.60;85.20
54485;DHT22;45006;56.958;24.166;2023-10-13T07:38:27;20.60;85.60
54485;DHT22;45006;56.958;24.166;2023-10-13T07:40:59;20.60;85.50
54485;DHT22;45006;56.958;24.166;2023-10-13T07:43:34;20.60;85.40
54485;DHT22;45006;56.958;24.166;2023-10-13T07:46:05;20.60;85.40
54485;DHT22;45006;56.958;24.166;2023-10-13T07:48:39;20.60;85.30
54485;DHT22;45006;56.958;24.166;2023-10-13T07:51:08;20.60;85.50
54485;DHT22;45006;56.958;24.166;2023-10-13T07:53:46;20.60;85.40
54485;DHT22;45006;56.958;24.166;2023-10-13T07:56:16;20.60;85.40
54485;DHT22;45006;56.958;24.166;2023-10-13T07:58:46;20.60;85.40
54485;DHT22;45006;56.958;24.166;2023-10-13T08:01:31;20.60;85.50
54485;DHT22;45006;56.958;24.166;2023-10-13T08:03:59;20.60;85.40
54485;DHT22;45006;56.958;24.166;2023-10-13T08:06:39;20.60;85.30
54485;DHT22;45006;56.958;24.166;2023-10-13T08:09:29;20.60;85.20
54485;DHT22;45006;56.958;24.166;2023-10-13T08:12:07;20.60;84.90
54485;DHT22;45006;56.958;24.166;2023-10-13T08:14:48;20.60;84.70
54485;DHT22;45006;56.958;24.166;2023-10-13T08:17:16;20.60;84.70
54485;DHT22;45006;56.958;24.166;2023-10-13T08:19:45;20.50;84.60
54485;DHT22;45006;56.958;24.166;2023-10-13T08:22:13;20.50;84.60
54485;DHT22;45006;56.958;24.166;2023-10-13T08:24:43;20.50;84.60
54485;DHT22;45006;56.958;24.166;2023-10-13T08:27:13;20.50;84.70
54485;DHT22;45006;56.958;24.166;2023-10-13T08:29:46;20.50;84.60
54485;DHT22;45006;56.958;24.166;2023-10-13T08:32:28;20.50;84.60
54485;DHT22;45006;56.958;24.166;2023-10-13T08:35:00;20.50;84.60
54485;DHT22;45006;56.958;24.166;2023-10-13T08:37:31;20.50;84.70
54485;DHT22;45006;56.958;24.166;2023-10-13T08:40:17;20.50;84.70
54485;DHT22;45006;56.958;24.166;2023-10-13T08:43:10;20.50;84.70
54485;DHT22;45006;56.958;24.166;2023-10-13T08:45:40;20.50;84.80
54485;DHT22;45006;56.958;24.166;2023-10-13T08:48:10;20.50;84.80
54485;DHT22;45006;56.958;24.166;2023-10-13T08:50:47;20.50;85.10
54485;DHT22;45006;56.958;24.166;2023-10-13T08:58:37;20.50;84.90
54485;DHT22;45006;56.958;24.166;2023-10-13T09:04:11;20.50;85.00
54485;DHT22;45006;56.958;24.166;2023-10-13T09:06:59;20.50;85.00
54485;DHT22;45006;56.958;24.166;2023-10-13T09:09:27;20.50;85.00
54485;DHT22;45006;56.958;24.166;2023-10-13T09:12:10;20.50;85.00
54485;DHT22;45006;56.958;24.166;2023-10-13T09:14:38;20.50;85.00
54485;DHT22;45006;56.958;24.166;2023-10-13T09:17:11;20.50;85.00
54485;DHT22;45006;56.958;24.166;2023-10-13T09:19:51;20.50;85.00
54485;DHT22;45006;56.958;24.166;2023-10-13T09:22:29;20.50;85.00
54485;DHT22;45006;56.958;24.166;2023-10-13T09:25:05;20.50;85.00
54485;DHT22;45006;56.958;24.166;2023-10-13T09:27:33;20.50;85.00
54485;DHT22;45006;56.958;24.166;2023-10-13T09:30:05;20.50;84.90
54485;DHT22;45006;56.958;24.166;2023-10-13T09:32:45;20.50;84.90
54485;DHT22;45006;56.958;24.166;2023-10-13T09:35:18;20.50;85.00
54485;DHT22;45006;56.958;24.166;2023-10-13T09:37:47;20.50;85.00
54485;DHT22;45006;56.958;24.166;2023-10-13T09:40:16;20.50;85.00
54485;DHT22;45006;56.958;24.166;2023-10-13T09:43:02;20.50;85.00
54485;DHT22;45006;56.958;24.166;2023-10-13T09:45:35;20.50;85.10
54485;DHT22;45006;56.958;24.166;2023-10-13T09:48:22;20.50;85.00
54485;DHT22;45006;56.958;24.166;2023-10-13T09:50:58;20.50;85.00
54485;DHT22;45006;56.958;24.166;2023-10-13T09:53:27;20.50;85.10
54485;DHT22;45006;56.958;24.166;2023-10-13T09:56:18;20.50;85.10
54485;DHT22;45006;56.958;24.166;2023-10-13T09:58:53;20.40;85.10
54485;DHT22;45006;56.958;24.166;2023-10-13T10:01:27;20.40;85.10
54485;DHT22;45006;56.958;24.166;2023-10-13T10:04:11;20.50;85.20
54485;DHT22;45006;56.958;24.166;2023-10-13T10:06:59;20.50;85.20
54485;DHT22;45006;56.958;24.166;2023-10-13T10:09:33;20.50;85.00
54485;DHT22;45006;56.958;24.166;2023-10-13T10:12:12;20.50;84.80
54485;DHT22;45006;56.958;24.166;2023-10-13T10:17:23;20.50;84.60
54485;DHT22;45006;56.958;24.166;2023-10-13T10:19:56;20.50;84.40
54485;DHT22;45006;56.958;24.166;2023-10-13T10:22:28;20.50;84.40
54485;DHT22;45006;56.958;24.166;2023-10-13T10:25:06;20.50;84.30
54485;DHT22;45006;56.958;24.166;2023-10-13T10:27:58;20.50;84.40
54485;DHT22;45006;56.958;24.166;2023-10-13T10:30:29;20.50;84.30
54485;DHT22;45006;56.958;24.166;2023-10-13T10:32:57;20.50;84.30
54485;DHT22;45006;56.958;24.166;2023-10-13T10:35:30;20.50;84.30
54485;DHT22;45006;56.958;24.166;2023-10-13T10:38:14;20.50;84.30
54485;DHT22;45006;56.958;24.166;2023-10-13T10:40:58;20.50;84.50
54485;DHT22;45006;56.958;24.166;2023-10-13T10:43:36;20.50;84.40
54485;DHT22;45006;56.958;24.166;2023-10-13T10:46:18;20.60;84.40
54485;DHT22;45006;56.958;24.166;2023-10-13T10:48:45;20.50;84.40
54485;DHT22;45006;56.958;24.166;2023-10-13T10:51:14;20.60;84.60
54485;DHT22;45006;56.958;24.166;2023-10-13T10:53:49;20.60;84.60
54485;DHT22;45006;56.958;24.166;2023-10-13T10:56:25;20.60;84.70
54485;DHT22;45006;56.958;24.166;2023-10-13T10:58:57;20.60;84.80
54485;DHT22;45006;56.958;24.166;2023-10-13T11:01:26;20.50;84.80
54485;DHT22;45006;56.958;24.166;2023-10-13T11:04:05;20.50;84.90
54485;DHT22;45006;56.958;24.166;2023-10-13T11:06:36;20.50;85.00
54485;DHT22;45006;56.958;24.166;2023-10-13T11:09:09;20.60;85.10
54485;DHT22;45006;56.958;24.166;2023-10-13T11:15:05;20.60;85.20
54485;DHT22;45006;56.958;24.166;2023-10-13T11:18:00;20.60;85.30
54485;DHT22;45006;56.958;24.166;2023-10-13T11:20:32;20.60;85.20
54485;DHT22;45006;56.958;24.166;2023-10-13T11:23:11;20.60;85.30
54485;DHT22;45006;56.958;24.166;2023-10-13T11:25:39;20.60;85.40
54485;DHT22;45006;56.958;24.166;2023-10-13T11:28:16;20.60;85.40
54485;DHT22;45006;56.958;24.166;2023-10-13T11:30:59;20.60;85.40
54485;DHT22;45006;56.958;24.166;2023-10-13T11:33:27;20.60;85.40
54485;DHT22;45006;56.958;24.166;2023-10-13T11:35:57;20.60;85.60
54485;DHT22;45006;56.958;24.166;2023-10-13T11:38:33;20.60;85.60
54485;DHT22;45006;56.958;24.166;2023-10-13T11:41:12;20.60;85.50
54485;DHT22;45006;56.958;24.166;2023-10-13T11:43:50;20.60;85.30
54485;DHT22;45006;56.958;24.166;2023-10-13T11:46:25;20.60;85.00
54485;DHT22;45006;56.958;24.166;2023-10-13T11:49:07;20.50;84.60
54485;DHT22;45006;56.958;24.166;2023-10-13T11:51:49;20.60;84.40
54485;DHT22;45006;56.958;24.166;2023-10-13T11:54:23;20.60;84.20
54485;DHT22;45006;56.958;24.166;2023-10-13T11:56:53;20.60;84.20
54485;DHT22;45006;56.958;24.166;2023-10-13T11:59:26;20.50;84.20
54485;DHT22;45006;56.958;24.166;2023-10-13T12:01:55;20.50;84.60
54485;DHT22;45006;56.958;24.166;2023-10-13T12:04:40;20.50;84.90
54485;DHT22;45006;56.958;24.166;2023-10-13T12:07:22;20.50;84.90
54485;DHT22;45006;56.958;24.166;2023-10-13T12:10:08;20.60;85.00
54485;DHT22;45006;56.958;24.166;2023-10-13T12:12:42;20.50;85.10
54485;DHT22;45006;56.958;24.166;2023-10-13T12:15:14;20.50;85.10
54485;DHT22;45006;56.958;24.166;2023-10-13T12:18:01;20.60;85.30
54485;DHT22;45006;56.958;24.166;2023-10-13T12:20:30;20.60;85.40
54485;DHT22;45006;56.958;24.166;2023-10-13T12:23:02;20.50;85.30
54485;DHT22;45006;56.958;24.166;2023-10-13T12:25:43;20.60;85.50
54485;DHT22;45006;56.958;24.166;2023-10-13T12:28:27;20.50;85.40
54485;DHT22;45006;56.958;24.166;2023-10-13T12:30:56;20.60;85.60
54485;DHT22;45006;56.958;24.166;2023-10-13T12:33:28;20.50;85.50
54485;DHT22;45006;56.958;24.166;2023-10-13T12:36:05;20.50;85.50
54485;DHT22;45006;56.958;24.166;2023-10-13T12:38:38;20.60;85.60
54485;DHT22;45006;56.958;24.166;2023-10-13T12:41:14;20.50;85.60
54485;DHT22;45006;56.958;24.166;2023-10-13T12:44:03;20.60;85.70
54485;DHT22;45006;56.958;24.166;2023-10-13T12:46:50;20.60;85.70
54485;DHT22;45006;56.958;24.166;2023-10-13T12:49:37;20.50;85.70
54485;DHT22;45006;56.958;24.166;2023-10-13T12:52:11;20.60;86.40
54485;DHT22;45006;56.958;24.166;2023-10-13T12:54:53;20.50;85.80
54485;DHT22;45006;56.958;24.166;2023-10-13T12:57:29;20.50;85.90
54485;DHT22;45006;56.958;24.166;2023-10-13T12:59:57;20.50;85.80
54485;DHT22;45006;56.958;24.166;2023-10-13T13:02:25;20.50;85.90
54485;DHT22;45006;56.958;24.166;2023-10-13T13:04:54;20.50;85.90
54485;DHT22;45006;56.958;24.166;2023-10-13T13:07:28;20.50;86.00
54485;DHT22;45006;56.958;24.166;2023-10-13T13:09:58;20.50;85.90
54485;DHT22;45006;56.958;24.166;2023-10-13T13:12:36;20.50;86.10
54485;DHT22;45006;56.958;24.166;2023-10-13T13:15:07;20.50;86.00
54485;DHT22;45006;56.958;24.166;2023-10-13T13:17:37;20.50;86.00
54485;DHT22;45006;56.958;24.166;2023-10-13T13:20:08;20.50;86.10
54485;DHT22;45006;56.958;24.166;2023-10-13T13:22:54;20.50;86.10
54485;DHT22;45006;56.958;24.166;2023-10-13T13:25:22;20.50;86.10
54485;DHT22;45006;56.958;24.166;2023-10-13T13:27:58;20.50;86.00
54485;DHT22;45006;56.958;24.166;2023-10-13T13:30:33;20.50;86.00
54485;DHT22;45006;56.958;24.166;2023-10-13T13:33:01;20.50;87.00
54485;DHT22;45006;56.958;24.166;2023-10-13T13:35:38;20.60;87.70
54485;DHT22;45006;56.958;24.166;2023-10-13T13:38:05;20.60;88.30
54485;DHT22;45006;56.958;24.166;2023-10-13T13:40:54;20.70;87.30
54485;DHT22;45006;56.958;24.166;2023-10-13T13:43:22;20.80;84.80
54485;DHT22;45006;56.958;24.166;2023-10-13T13:46:02;20.80;83.00
54485;DHT22;45006;56.958;24.166;2023-10-13T13:48:30;20.90;81.90
54485;DHT22;45006;56.958;24.166;2023-10-13T13:50:58;20.90;80.70
54485;DHT22;45006;56.958;24.166;2023-10-13T13:53:31;21.00;79.10
54485;DHT22;45006;56.958;24.166;2023-10-13T13:56:04;21.00;77.90
54485;DHT22;45006;56.958;24.166;2023-10-13T13:58:31;21.00;76.90
54485;DHT22;45006;56.958;24.166;2023-10-13T14:01:04;21.10;76.30
54485;DHT22;45006;56.958;24.166;2023-10-13T14:03:40;21.10;75.00
54485;DHT22;45006;56.958;24.166;2023-10-13T14:06:16;21.10;75.10
54485;DHT22;45006;56.958;24.166;2023-10-13T14:08:52;21.10;74.50
54485;DHT22;45006;56.958;24.166;2023-10-13T14:11:26;21.10;74.00
54485;DHT22;45006;56.958;24.166;2023-10-13T14:14:15;21.20;73.10
54485;DHT22;45006;56.958;24.166;2023-10-13T14:16:52;21.20;73.30
54485;DHT22;45006;56.958;24.166;2023-10-13T14:19:20;21.20;73.00
54485;DHT22;45006;56.958;24.166;2023-10-13T14:21:57;21.20;72.20
54485;DHT22;45006;56.958;24.166;2023-10-13T14:24:26;21.20;72.90
54485;DHT22;45006;56.958;24.166;2023-10-13T14:27:01;21.20;72.40
54485;DHT22;45006;56.958;24.166;2023-10-13T14:29:36;21.20;72.70
54485;DHT22;45006;56.958;24.166;2023-10-13T14:32:13;21.20;72.40
54485;DHT22;45006;56.958;24.166;2023-10-13T14:34:43;21.20;73.20
54485;DHT22;45006;56.958;24.166;2023-10-13T14:37:11;21.20;73.20
54485;DHT22;45006;56.958;24.166;2023-10-13T14:39:47;21.20;73.10
54485;DHT22;45006;56.958;24.166;2023-10-13T14:42:17;21.00;72.20
54485;DHT22;45006;56.958;24.166;2023-10-13T14:44:49;20.90;74.20
54485;DHT22;45006;56.958;24.166;2023-10-13T14:47:25;20.90;73.80
54485;DHT22;45006;56.958;24.166;2023-10-13T14:49:53;21.00;72.80
54485;DHT22;45006;56.958;24.166;2023-10-13T14:52:24;21.00;72.00
54485;DHT22;45006;56.958;24.166;2023-10-13T14:54:51;21.10;71.10
54485;DHT22;45006;56.958;24.166;2023-10-13T14:57:24;21.10;70.60
54485;DHT22;45006;56.958;24.166;2023-10-13T14:59:56;21.10;70.10
54485;DHT22;45006;56.958;24.166;2023-10-13T15:02:33;21.10;69.80
54485;DHT22;45006;56.958;24.166;2023-10-13T15:05:03;21.20;69.10
54485;DHT22;45006;56.958;24.166;2023-10-13T15:07:31;21.10;70.80
54485;DHT22;45006;56.958;24.166;2023-10-13T15:09:59;21.00;70.30
54485;DHT22;45006;56.958;24.166;2023-10-13T15:12:27;20.90;71.10
54485;DHT22;45006;56.958;24.166;2023-10-13T15:14:55;20.90;72.20
54485;DHT22;45006;56.958;24.166;2023-10-13T15:17:23;20.80;73.90
54485;DHT22;45006;56.958;24.166;2023-10-13T15:19:51;20.80;74.70
54485;DHT22;45006;56.958;24.166;2023-10-13T15:22:19;20.70;75.30
54485;DHT22;45006;56.958;24.166;2023-10-13T15:24:53;20.70;76.20
54485;DHT22;45006;56.958;24.166;2023-10-13T15:27:36;20.70;76.40
54485;DHT22;45006;56.958;24.166;2023-10-13T15:30:09;20.60;77.00
54485;DHT22;45006;56.958;24.166;2023-10-13T15:32:54;20.60;77.50
54485;DHT22;45006;56.958;24.166;2023-10-13T15:35:24;20.60;77.90
54485;DHT22;45006;56.958;24.166;2023-10-13T15:37:55;20.60;78.50
54485;DHT22;45006;56.958;24.166;2023-10-13T15:40:23;20.50;78.80
54485;DHT22;45006;56.958;24.166;2023-10-13T15:42:52;20.50;79.20
54485;DHT22;45006;56.958;24.166;2023-10-13T15:45:33;20.50;79.50
54485;DHT22;45006;56.958;24.166;2023-10-13T15:48:06;20.50;79.80
54485;DHT22;45006;56.958;24.166;2023-10-13T15:50:38;20.40;80.60
54485;DHT22;45006;56.958;24.166;2023-10-13T15:53:09;20.40;80.50
54485;DHT22;45006;56.958;24.166;2023-10-13T15:55:41;20.40;80.50
54485;DHT22;45006;56.958;24.166;2023-10-13T15:58:13;20.40;80.70
54485;DHT22;45006;56.958;24.166;2023-10-13T16:00:40;20.40;80.90
54485;DHT22;45006;56.958;24.166;2023-10-13T16:03:08;20.40;81.20
54485;DHT22;45006;56.958;24.166;2023-10-13T16:05:39;20.40;81.40
54485;DHT22;45006;56.958;24.166;2023-10-13T16:08:15;20.40;80.80
54485;DHT22;45006;56.958;24.166;2023-10-13T16:10:46;20.50;79.30
54485;DHT22;45006;56.958;24.166;2023-10-13T16:13:14;20.60;78.00
54485;DHT22;45006;56.958;24.166;2023-10-13T16:15:47;20.70;76.30
54485;DHT22;45006;56.958;24.166;2023-10-13T16:18:15;20.80;75.50
54485;DHT22;45006;56.958;24.166;2023-10-13T16:20:48;20.90;74.40